Time;durP1;ratioP1;P1;durP2;ratioP2;P2;SDS_P1;SDS_P2;PMS_P1;PMS_P2;Temp;Humidity;BMP_temperature;BMP_pressure;BME280_temperature;BME280_humidity;BME280_pressure;Samples;Min_cycle;Max_cycle;Signal;HPM_P1;HPM_P2
2023/04/12 00:02:13;;;;;;;6.78;2.53;;;8.10;99.90;;;;;;5096849;28;20044;-74
2023/04/12 00:04:39;;;;;;;7.60;3.55;;;7.60;99.90;;;;;;5096767;28;20495;-74
2023/04/12 00:07:04;;;;;;;8.98;2.40;;;7.70;99.90;;;;;;5096698;28;20537;-74
2023/04/12 00:09:31;;;;;;;8.77;2.60;;;7.70;99.90;;;;;;5096304;28;20043;-74
2023/04/12 00:11:58;;;;;;;7.40;2.45;;;7.80;99.90;;;;;;5097060;28;20051;-74
2023/04/12 00:14:24;;;;;;;7.53;2.47;;;7.80;99.90;;;;;;5096577;28;20040;-73
2023/04/12 00:16:50;;;;;;;8.27;2.25;;;7.80;99.90;;;;;;5096484;28;20044;-74
2023/04/12 00:19:16;;;;;;;5.43;2.15;;;7.80;99.90;;;;;;5096467;28;20088;-73
2023/04/12 00:21:42;;;;;;;6.35;2.25;;;7.90;99.90;;;;;;5096452;28;20122;-73
2023/04/12 00:24:08;;;;;;;8.43;2.00;;;7.90;99.90;;;;;;5096357;28;20043;-74
2023/04/12 00:26:33;;;;;;;11.63;2.85;;;7.90;99.90;;;;;;5095793;28;20054;-74
2023/04/12 00:28:59;;;;;;;5.25;2.25;;;7.90;99.90;;;;;;5096141;28;20085;-74
2023/04/12 00:31:25;;;;;;;5.65;2.20;;;7.90;99.90;;;;;;5096219;28;20130;-74
2023/04/12 00:33:51;;;;;;;9.15;2.90;;;8.00;99.90;;;;;;5096193;28;20043;-72
2023/04/12 00:36:16;;;;;;;10.93;2.83;;;8.00;99.90;;;;;;5095003;28;20047;-74
2023/04/12 00:38:44;;;;;;;7.40;2.40;;;8.00;99.90;;;;;;5096020;28;20044;-74
2023/04/12 00:41:11;;;;;;;9.80;2.50;;;8.00;99.90;;;;;;5095863;28;20440;-74
2023/04/12 00:43:36;;;;;;;5.87;2.27;;;8.40;99.90;;;;;;5096072;28;20059;-74
2023/04/12 00:46:02;;;;;;;7.55;2.58;;;8.10;99.90;;;;;;5095820;28;20048;-73
2023/04/12 00:48:29;;;;;;;8.40;2.38;;;8.10;99.90;;;;;;5095866;28;20044;-73
2023/04/12 00:50:56;;;;;;;10.63;2.75;;;8.10;99.90;;;;;;5095587;28;20483;-73
2023/04/12 00:53:22;;;;;;;;;;;8.10;99.90;;;;;;5096161;28;20385;-74
2023/04/12 00:55:49;;;;;;;9.57;2.55;;;8.10;99.90;;;;;;5095690;28;19920;-73
2023/04/12 00:58:15;;;;;;;5.68;2.45;;;8.20;99.90;;;;;;5095683;28;20044;-74
2023/04/12 01:00:49;;;;;;;6.38;2.42;;;8.20;99.90;;;;;;5094711;28;20044;-73
2023/04/12 01:03:26;;;;;;;11.23;3.13;;;8.30;99.90;;;;;;5095498;28;20048;-74
2023/04/12 01:06:18;;;;;;;11.60;3.00;;;8.20;99.90;;;;;;5095704;28;20063;-73
2023/04/12 01:08:56;;;;;;;5.72;2.42;;;8.20;99.90;;;;;;5095481;28;20472;-74
2023/04/12 01:11:43;;;;;;;8.57;2.78;;;8.20;99.90;;;;;;5095421;28;20495;-74
2023/04/12 01:14:17;;;;;;;9.23;2.47;;;8.20;99.90;;;;;;5095450;28;20048;-74
2023/04/12 01:16:50;;;;;;;8.27;2.58;;;8.30;99.90;;;;;;5095843;28;20101;-73
2023/04/12 01:19:32;;;;;;;9.35;2.67;;;8.30;99.90;;;;;;5095240;28;20035;-73
2023/04/12 01:22:14;;;;;;;9.77;2.55;;;8.30;99.90;;;;;;5095423;28;20059;-74
2023/04/12 01:25:01;;;;;;;11.32;3.45;;;8.30;99.90;;;;;;5095307;28;20044;-74
2023/04/12 01:27:43;;;;;;;6.93;2.72;;;8.30;99.90;;;;;;5095082;28;20036;-74
2023/04/12 01:30:12;;;;;;;8.10;2.60;;;8.30;99.90;;;;;;5095089;28;20036;-74
2023/04/12 01:32:41;;;;;;;9.23;3.10;;;8.30;99.90;;;;;;5094993;28;20449;-74
2023/04/12 01:35:09;;;;;;;5.72;2.63;;;8.30;99.90;;;;;;5095023;28;20079;-74
2023/04/12 01:37:35;;;;;;;8.05;2.58;;;8.30;99.90;;;;;;5094061;28;20044;-74
2023/04/12 01:40:02;;;;;;;10.13;3.28;;;8.30;99.90;;;;;;5094861;28;20050;-73
2023/04/12 01:42:28;;;;;;;9.70;2.90;;;8.30;99.90;;;;;;5094846;28;20040;-73
2023/04/12 01:44:54;;;;;;;4.82;2.45;;;8.40;99.90;;;;;;5093606;28;20476;-74
2023/04/12 01:47:19;;;;;;;8.48;2.90;;;8.30;99.90;;;;;;5094771;28;20039;-74
2023/04/12 01:50:07;;;;;;;8.18;2.78;;;8.30;99.90;;;;;;5094450;28;20060;-74
2023/04/12 01:52:37;;;;;;;9.68;2.70;;;8.40;99.90;;;;;;5094700;28;20052;-73
2023/04/12 01:55:05;;;;;;;10.57;3.30;;;8.80;99.90;;;;;;5093510;28;20113;-74
2023/04/12 01:57:33;;;;;;;9.98;2.83;;;8.40;99.90;;;;;;5094744;28;20052;-73
2023/04/12 02:00:01;;;;;;;8.70;2.63;;;8.40;99.90;;;;;;5094412;28;20090;-73
2023/04/12 02:02:27;;;;;;;9.32;2.50;;;8.90;99.90;;;;;;5094475;28;20040;-74
2023/04/12 02:04:54;;;;;;;9.48;2.80;;;8.40;99.90;;;;;;5094541;28;20047;-73
2023/04/12 02:07:20;;;;;;;;;;;8.40;99.90;;;;;;5094864;28;20044;-74
2023/04/12 02:09:45;;;;;;;13.65;2.97;;;8.60;99.90;;;;;;5094309;28;19931;-74
2023/04/12 02:12:12;;;;;;;7.55;2.72;;;8.40;99.90;;;;;;5094313;28;20043;-74
2023/04/12 02:14:37;;;;;;;20.48;3.33;;;8.40;99.90;;;;;;5094346;28;20093;-74
2023/04/12 02:17:04;;;;;;;7.18;2.67;;;8.40;99.90;;;;;;5094202;28;20048;-73
2023/04/12 02:19:31;;;;;;;6.35;2.63;;;8.40;99.90;;;;;;5094235;28;20127;-74
2023/04/12 02:21:56;;;;;;;7.55;2.63;;;8.40;99.90;;;;;;5094201;28;20055;-74
2023/04/12 02:24:22;;;;;;;6.68;2.75;;;8.40;99.90;;;;;;5094399;28;20040;-73
2023/04/12 02:26:50;;;;;;;7.78;2.95;;;8.40;99.90;;;;;;5094125;28;20127;-74
2023/04/12 02:29:16;;;;;;;5.00;2.55;;;8.40;99.90;;;;;;5093890;28;20127;-74
2023/04/12 02:31:42;;;;;;;9.75;2.33;;;8.50;99.90;;;;;;5093983;28;20083;-73
2023/04/12 02:34:07;;;;;;;6.05;2.53;;;8.40;99.90;;;;;;5094025;28;20083;-73
2023/04/12 02:36:36;;;;;;;4.90;2.30;;;8.40;99.90;;;;;;5093999;28;20048;-74
2023/04/12 02:39:02;;;;;;;6.13;2.47;;;8.40;99.90;;;;;;5093918;28;20106;-74
2023/04/12 02:41:28;;;;;;;5.20;2.23;;;8.40;99.90;;;;;;5093958;28;20090;-74
2023/04/12 02:43:53;;;;;;;6.68;2.35;;;8.50;99.90;;;;;;5093904;28;20091;-74
2023/04/12 02:46:22;;;;;;;7.05;2.00;;;8.40;99.90;;;;;;5093915;28;20198;-74
2023/04/12 02:48:48;;;;;;;9.57;2.53;;;8.40;99.90;;;;;;5092303;28;20404;-74
2023/04/12 02:51:14;;;;;;;4.63;1.55;;;8.40;99.90;;;;;;5094311;28;20071;-73
2023/04/12 02:53:39;;;;;;;4.45;1.70;;;8.40;99.90;;;;;;5093894;28;20040;-73
2023/04/12 02:56:06;;;;;;;5.10;1.85;;;9.10;99.90;;;;;;5093835;28;20048;-74
2023/04/12 02:58:32;;;;;;;5.13;2.00;;;8.40;99.90;;;;;;5093778;28;20047;-73
2023/04/12 03:00:59;;;;;;;7.57;2.20;;;8.40;99.90;;;;;;5093682;28;20046;-75
2023/04/12 03:03:25;;;;;;;4.93;2.00;;;8.40;99.90;;;;;;5093718;28;20048;-74
2023/04/12 03:05:51;;;;;;;4.47;1.95;;;8.40;99.90;;;;;;5093831;28;20083;-73
2023/04/12 03:08:18;;;;;;;5.00;2.10;;;8.50;99.90;;;;;;5093587;28;20369;-73
2023/04/12 03:10:43;;;;;;;4.80;2.10;;;8.40;99.90;;;;;;5093667;28;20040;-73
2023/04/12 03:13:09;;;;;;;7.43;2.20;;;8.40;99.90;;;;;;5093794;28;20043;-73
2023/04/12 03:15:35;;;;;;;8.10;2.13;;;8.40;99.90;;;;;;5093534;28;20047;-74
2023/04/12 03:18:01;;;;;;;8.15;2.03;;;8.50;99.90;;;;;;5094050;28;20552;-73
2023/04/12 03:20:27;;;;;;;7.25;1.85;;;8.30;99.90;;;;;;5093735;28;20399;-73
2023/04/12 03:22:53;;;;;;;5.63;2.87;;;8.40;99.90;;;;;;5093552;28;20048;-74
2023/04/12 03:25:19;;;;;;;6.20;1.90;;;8.50;99.90;;;;;;5093554;28;20560;-74
2023/04/12 03:27:44;;;;;;;8.85;2.13;;;8.40;99.90;;;;;;5093531;28;20071;-74
2023/04/12 03:30:10;;;;;;;5.78;1.98;;;8.70;99.90;;;;;;5093432;28;20032;-74
2023/04/12 03:32:40;;;;;;;7.45;2.30;;;8.40;99.90;;;;;;5093828;28;20094;-74
2023/04/12 03:35:07;;;;;;;4.32;2.10;;;8.40;99.90;;;;;;5093671;28;20449;-73
2023/04/12 03:37:34;;;;;;;4.15;2.05;;;8.40;99.90;;;;;;5093392;28;20070;-73
2023/04/12 03:40:00;;;;;;;7.40;2.30;;;8.60;99.90;;;;;;5093516;28;20105;-73
2023/04/12 03:42:27;;;;;;;7.10;2.10;;;8.40;99.90;;;;;;5093416;28;20040;-73
2023/04/12 03:44:52;;;;;;;6.15;2.25;;;8.40;99.90;;;;;;5093215;28;20044;-74
2023/04/12 03:47:18;;;;;;;4.88;2.22;;;8.50;99.90;;;;;;5093305;28;20048;-73
2023/04/12 03:49:45;;;;;;;5.90;2.30;;;8.40;99.90;;;;;;5092776;28;20055;-74
2023/04/12 03:52:11;;;;;;;6.22;1.90;;;8.40;99.90;;;;;;5093687;28;20056;-74
2023/04/12 03:54:36;;;;;;;3.22;1.90;;;8.60;99.90;;;;;;5093257;28;20132;-73
2023/04/12 03:57:02;;;;;;;5.05;2.28;;;8.90;99.90;;;;;;5093341;28;20165;-73
2023/04/12 03:59:28;;;;;;;8.13;2.33;;;8.40;99.90;;;;;;5093143;28;20373;-74
2023/04/12 04:01:55;;;;;;;7.90;2.33;;;8.70;99.90;;;;;;5096000;28;20071;-74
2023/04/12 04:04:22;;;;;;;5.30;2.20;;;8.40;99.90;;;;;;5097202;28;20051;-74
2023/04/12 04:06:48;;;;;;;8.93;2.17;;;8.50;99.90;;;;;;5096882;28;20051;-74
2023/04/12 04:09:14;;;;;;;5.72;2.28;;;8.40;99.90;;;;;;5096528;28;20040;-74
2023/04/12 04:11:40;;;;;;;4.57;2.13;;;8.40;99.90;;;;;;5096650;28;20052;-74
2023/04/12 04:14:07;;;;;;;5.07;2.17;;;8.90;99.90;;;;;;5096562;28;20055;-74
2023/04/12 04:16:32;;;;;;;;;;;9.20;99.90;;;;;;5096931;28;20056;-73
2023/04/12 04:18:59;;;;;;;6.45;2.25;;;8.90;99.90;;;;;;5096856;28;20019;-73
2023/04/12 04:21:25;;;;;;;9.27;2.45;;;8.40;99.90;;;;;;5096468;28;20463;-73
2023/04/12 04:23:51;;;;;;;5.00;2.30;;;8.40;99.90;;;;;;5096428;28;20083;-74
2023/04/12 04:26:17;;;;;;;3.90;2.03;;;8.40;99.90;;;;;;5096466;28;20316;-74
2023/04/12 04:28:44;;;;;;;8.77;2.30;;;8.40;99.90;;;;;;5095191;28;20044;-74
2023/04/12 04:31:11;;;;;;;3.22;1.85;;;8.30;99.90;;;;;;5096345;28;20044;-74
2023/04/12 04:33:37;;;;;;;4.68;2.22;;;8.30;99.90;;;;;;5096232;28;20044;-74
2023/04/12 04:36:04;;;;;;;4.70;2.25;;;8.30;99.90;;;;;;5096191;28;20127;-74
2023/04/12 04:38:31;;;;;;;5.68;1.85;;;8.20;99.90;;;;;;5096161;28;20128;-73
2023/04/12 04:41:03;;;;;;;8.43;2.40;;;8.20;99.90;;;;;;5096093;28;20055;-74
2023/04/12 04:43:30;;;;;;;3.42;1.90;;;8.20;99.90;;;;;;5095993;28;20447;-73
2023/04/12 04:45:56;;;;;;;6.90;2.22;;;8.20;99.90;;;;;;5094910;28;20408;-74
2023/04/12 04:48:23;;;;;;;3.97;2.00;;;8.10;99.90;;;;;;5095834;28;20037;-73
2023/04/12 04:50:50;;;;;;;5.20;2.00;;;8.10;99.90;;;;;;5095925;28;20109;-74
2023/04/12 04:53:17;;;;;;;4.07;1.90;;;8.00;99.90;;;;;;5095998;28;20075;-74
2023/04/12 04:55:43;;;;;;;4.55;1.80;;;8.10;99.90;;;;;;5095401;28;20090;-74
2023/04/12 04:58:08;;;;;;;3.50;1.80;;;8.10;99.90;;;;;;5095609;28;20075;-74
2023/04/12 05:00:35;;;;;;;4.50;2.30;;;8.50;99.90;;;;;;5095553;28;20553;-74
2023/04/12 05:03:01;;;;;;;3.67;1.70;;;8.00;99.90;;;;;;5095614;28;20051;-73
2023/04/12 05:05:28;;;;;;;3.10;1.50;;;8.10;99.90;;;;;;5095537;28;20040;-76
2023/04/12 05:07:54;;;;;;;5.73;1.63;;;8.00;99.90;;;;;;5095636;28;20505;-73
2023/04/12 05:10:20;;;;;;;5.95;2.13;;;8.00;99.90;;;;;;5095491;28;20048;-78
2023/04/12 05:12:45;;;;;;;6.63;1.77;;;8.00;99.90;;;;;;5095330;28;20043;-75
2023/04/12 05:15:11;;;;;;;4.38;1.70;;;7.90;99.90;;;;;;5095443;28;20048;-75
2023/04/12 05:17:36;;;;;;;5.82;1.92;;;7.90;99.90;;;;;;5095403;28;20048;-74
2023/04/12 05:20:07;;;;;;;2.92;1.80;;;7.90;99.90;;;;;;5095297;28;20043;-73
2023/04/12 05:22:34;;;;;;;4.93;1.88;;;7.90;99.90;;;;;;5095485;28;20105;-75
2023/04/12 05:25:00;;;;;;;4.00;2.33;;;7.90;99.90;;;;;;5095289;28;20044;-75
2023/04/12 05:27:26;;;;;;;5.63;2.00;;;7.90;99.90;;;;;;5094659;28;20484;-75
2023/04/12 05:29:52;;;;;;;4.57;1.90;;;8.10;99.90;;;;;;5094986;28;20381;-75
2023/04/12 05:32:18;;;;;;;6.93;2.28;;;7.80;99.90;;;;;;5095103;28;20036;-75
2023/04/12 05:34:44;;;;;;;6.15;2.13;;;7.80;99.90;;;;;;5094709;28;20117;-75
2023/04/12 05:37:10;;;;;;;6.38;1.95;;;8.50;99.90;;;;;;5094802;28;20055;-75
2023/04/12 05:39:36;;;;;;;5.13;2.13;;;7.80;99.90;;;;;;5094768;28;20048;-75
2023/04/12 05:42:01;;;;;;;5.70;2.03;;;7.80;99.90;;;;;;5094901;28;20082;-74
2023/04/12 05:44:27;;;;;;;4.72;1.90;;;7.70;99.90;;;;;;5094928;28;20101;-75
2023/04/12 05:46:53;;;;;;;7.07;1.80;;;7.70;99.90;;;;;;5094806;28;20039;-76
2023/04/12 05:49:18;;;;;;;6.20;2.25;;;8.30;99.90;;;;;;5094581;28;20429;-74
2023/04/12 05:51:44;;;;;;;4.32;2.22;;;7.60;99.90;;;;;;5094329;28;20048;-74
2023/04/12 05:54:09;;;;;;;5.15;1.92;;;7.70;99.90;;;;;;5094803;28;20090;-73
2023/04/12 05:56:36;;;;;;;5.28;2.00;;;7.70;99.90;;;;;;5094580;28;20488;-74
2023/04/12 05:59:03;;;;;;;5.80;2.25;;;7.70;99.90;;;;;;5094362;28;20517;-73
2023/04/12 06:01:31;;;;;;;4.25;2.22;;;8.00;99.90;;;;;;5094588;28;20040;-74
2023/04/12 06:03:57;;;;;;;6.43;2.40;;;8.40;99.90;;;;;;5094388;28;20399;-75
2023/04/12 06:06:23;;;;;;;6.22;2.00;;;8.10;99.90;;;;;;5094452;28;20036;-73
2023/04/12 06:08:49;;;;;;;6.40;2.50;;;7.60;99.90;;;;;;5094002;28;20130;-71
2023/04/12 06:11:15;;;;;;;3.58;1.83;;;7.60;99.90;;;;;;5093173;28;20047;-72
2023/04/12 06:13:40;;;;;;;5.05;2.25;;;7.60;99.90;;;;;;5095011;28;20036;-74
2023/04/12 06:16:06;;;;;;;5.57;2.15;;;8.20;99.90;;;;;;5094574;28;20510;-74
2023/04/12 06:18:32;;;;;;;4.32;2.00;;;7.60;99.90;;;;;;5094522;28;20547;-74
2023/04/12 06:20:59;;;;;;;8.80;2.53;;;7.60;99.90;;;;;;5094209;28;20048;-79
2023/04/12 06:23:24;;;;;;;7.07;2.47;;;7.60;99.90;;;;;;5093708;28;20097;-77
2023/04/12 06:25:52;;;;;;;5.13;1.95;;;7.60;99.90;;;;;;5094061;28;20043;-78
2023/04/12 06:28:17;;;;;;;6.32;2.40;;;7.50;99.90;;;;;;5093967;28;20052;-78
2023/04/12 06:30:43;;;;;;;5.70;2.67;;;7.50;99.90;;;;;;5092350;28;20055;-74
2023/04/12 06:33:10;;;;;;;9.50;1.95;;;7.60;99.90;;;;;;5092879;28;20048;-74
2023/04/12 06:35:35;;;;;;;5.47;2.40;;;7.60;99.90;;;;;;5092382;28;20124;-74
2023/04/12 06:38:01;;;;;;;6.05;2.20;;;8.10;99.90;;;;;;5092120;28;20127;-74
2023/04/12 06:40:26;;;;;;;7.28;2.85;;;7.60;99.90;;;;;;5093252;28;20548;-75
2023/04/12 06:42:52;;;;;;;4.55;2.42;;;7.50;99.90;;;;;;5083634;28;20097;-74
2023/04/12 06:45:18;;;;;;;4.57;2.20;;;7.50;99.90;;;;;;5072473;28;20044;-77
2023/04/12 06:47:43;;;;;;;4.93;2.45;;;7.50;99.90;;;;;;5073940;28;20508;-78
2023/04/12 06:50:09;;;;;;;5.80;2.13;;;7.50;99.90;;;;;;5072599;28;20056;-77
2023/04/12 06:52:36;;;;;;;;;;;7.50;99.90;;;;;;5074237;28;20152;-81
2023/04/12 06:55:02;;;;;;;6.18;2.45;;;7.50;99.90;;;;;;5090502;28;19975;-79
2023/04/12 06:57:28;;;;;;;5.47;2.95;;;7.50;99.90;;;;;;5093726;28;20055;-74
2023/04/12 06:59:54;;;;;;;5.20;2.65;;;7.50;99.90;;;;;;5093756;28;20040;-74
2023/04/12 07:02:19;;;;;;;7.25;2.20;;;7.50;99.90;;;;;;5093477;28;20050;-74
2023/04/12 07:04:46;;;;;;;6.57;2.33;;;7.50;99.90;;;;;;5093752;28;20051;-74
2023/04/12 07:07:12;;;;;;;5.40;2.60;;;7.50;99.90;;;;;;5093820;28;20055;-75
2023/04/12 07:09:38;;;;;;;9.27;2.40;;;7.50;99.90;;;;;;5093511;28;20051;-75
2023/04/12 07:12:04;;;;;;;7.90;2.70;;;7.60;99.90;;;;;;5093740;28;20384;-74
2023/04/12 07:14:29;;;;;;;7.13;2.85;;;7.60;99.90;;;;;;5093830;28;20047;-74
2023/04/12 07:16:55;;;;;;;6.90;2.50;;;7.60;99.90;;;;;;5092798;28;20048;-75
2023/04/12 07:19:21;;;;;;;6.28;2.53;;;7.60;99.90;;;;;;5093569;28;20047;-76
2023/04/12 07:21:46;;;;;;;5.05;2.28;;;7.60;99.90;;;;;;5093503;28;20170;-76
2023/04/12 07:24:12;;;;;;;4.82;2.80;;;7.60;99.90;;;;;;5092921;28;20049;-75
2023/04/12 07:26:37;;;;;;;9.57;2.60;;;7.60;99.90;;;;;;5093451;28;20036;-75
2023/04/12 07:29:03;;;;;;;6.45;2.47;;;7.90;99.90;;;;;;5093384;28;20040;-76
2023/04/12 07:31:31;;;;;;;5.47;2.78;;;7.60;99.90;;;;;;5093460;28;20046;-77
2023/04/12 07:33:57;;;;;;;6.53;2.60;;;7.60;99.90;;;;;;5093379;28;20048;-76
2023/04/12 07:36:23;;;;;;;8.55;2.35;;;7.60;99.90;;;;;;5094989;28;20122;-75
2023/04/12 07:38:53;;;;;;;6.40;2.92;;;7.60;99.90;;;;;;5097248;28;20128;-75
2023/04/12 07:41:19;;;;;;;4.95;2.78;;;7.70;99.90;;;;;;5097711;28;20094;-75
2023/04/12 07:43:45;;;;;;;8.13;2.87;;;7.70;99.90;;;;;;5097284;28;20051;-76
2023/04/12 07:46:11;;;;;;;7.55;2.50;;;7.70;99.90;;;;;;5097196;28;20044;-76
2023/04/12 07:48:36;;;;;;;4.47;2.42;;;7.80;99.90;;;;;;5097064;28;20055;-77
2023/04/12 07:51:02;;;;;;;4.53;2.35;;;7.90;99.90;;;;;;5096970;28;20063;-76
2023/04/12 07:53:28;;;;;;;6.47;2.40;;;7.70;99.90;;;;;;5097042;28;20130;-77
2023/04/12 07:55:55;;;;;;;6.20;2.53;;;8.20;99.90;;;;;;5096932;28;20088;-77
2023/04/12 07:58:22;;;;;;;4.25;2.22;;;7.70;99.90;;;;;;5096641;28;20476;-75
2023/04/12 08:00:48;;;;;;;6.82;2.95;;;7.70;99.90;;;;;;5096659;28;20516;-76
2023/04/12 08:03:15;;;;;;;5.60;2.60;;;7.70;99.90;;;;;;5096826;28;20044;-75
2023/04/12 08:05:42;;;;;;;9.23;2.92;;;7.70;99.90;;;;;;5096754;28;20084;-75
2023/04/12 08:08:08;;;;;;;;;;;7.70;99.90;;;;;;5097140;28;20052;-77
2023/04/12 08:10:35;;;;;;;4.13;2.90;;;7.70;99.90;;;;;;5096960;28;19930;-75
2023/04/12 08:13:01;;;;;;;;;;;7.70;99.90;;;;;;5097317;28;20144;-74
2023/04/12 08:15:27;;;;;;;3.70;2.83;;;7.70;99.90;;;;;;5096654;28;19920;-75
2023/04/12 08:17:53;;;;;;;5.88;2.50;;;7.70;99.90;;;;;;5096856;28;20222;-76
2023/04/12 08:20:19;;;;;;;5.83;3.13;;;8.50;99.90;;;;;;5096618;28;20391;-76
2023/04/12 08:22:45;;;;;;;10.68;2.50;;;7.80;99.90;;;;;;5096566;28;20051;-76
2023/04/12 08:25:11;;;;;;;3.70;2.78;;;7.80;99.90;;;;;;5095160;28;20438;-75
2023/04/12 08:27:40;;;;;;;4.82;2.67;;;7.80;99.90;;;;;;5096417;28;20048;-77
2023/04/12 08:30:07;;;;;;;6.80;3.05;;;7.80;99.90;;;;;;5096217;28;20086;-76
2023/04/12 08:32:33;;;;;;;6.13;3.70;;;7.90;99.90;;;;;;5096221;28;20048;-76
2023/04/12 08:34:59;;;;;;;7.65;3.92;;;7.90;99.90;;;;;;5096113;28;20442;-76
2023/04/12 08:37:25;;;;;;;3.72;3.22;;;8.00;99.90;;;;;;5096209;28;20104;-76
2023/04/12 08:39:50;;;;;;;3.75;2.92;;;8.40;99.90;;;;;;5095894;28;20415;-75
2023/04/12 08:42:16;;;;;;;6.40;3.88;;;8.10;99.90;;;;;;5096180;28;20063;-76
2023/04/12 08:44:42;;;;;;;5.63;4.40;;;8.00;99.90;;;;;;5096383;28;20209;-77
2023/04/12 08:47:09;;;;;;;6.30;4.40;;;8.10;99.90;;;;;;5095612;28;20546;-76
2023/04/12 08:49:35;;;;;;;8.10;5.10;;;8.10;99.90;;;;;;5095798;28;20143;-75
2023/04/12 08:52:08;;;;;;;6.50;4.78;;;8.20;99.90;;;;;;5095948;28;20526;-75
2023/04/12 08:54:34;;;;;;;6.60;4.18;;;8.30;99.90;;;;;;5095832;28;20423;-76
2023/04/12 08:57:03;;;;;;;5.03;4.27;;;8.30;99.90;;;;;;5095818;28;20067;-77
2023/04/12 08:59:30;;;;;;;5.95;4.57;;;8.30;99.90;;;;;;5095449;28;20048;-77
2023/04/12 09:01:56;;;;;;;;;;;8.30;99.90;;;;;;5095929;28;20044;-74
2023/04/12 09:04:23;;;;;;;7.82;4.47;;;8.90;99.90;;;;;;5095622;28;19970;-74
2023/04/12 09:06:48;;;;;;;5.72;4.57;;;8.30;99.90;;;;;;5095283;28;20055;-73
2023/04/12 09:09:14;;;;;;;4.97;3.90;;;8.30;99.90;;;;;;5095444;28;20127;-75
2023/04/12 09:11:40;;;;;;;5.75;3.97;;;8.80;99.90;;;;;;5095558;28;20040;-74
2023/04/12 09:14:22;;;;;;;10.15;4.30;;;8.20;99.90;;;;;;5095807;28;20361;-75
2023/04/12 09:16:48;;;;;;;6.18;3.90;;;8.20;99.90;;;;;;5095520;28;20044;-76
2023/04/12 09:19:14;;;;;;;5.80;3.83;;;8.20;99.90;;;;;;5094031;28;20116;-76
2023/04/12 09:21:54;;;;;;;7.88;4.05;;;8.80;99.90;;;;;;5093759;28;20051;-77
2023/04/12 09:24:22;;;;;;;7.65;3.97;;;8.20;99.90;;;;;;5094403;28;20036;-74
2023/04/12 09:27:00;;;;;;;7.78;5.07;;;8.30;99.90;;;;;;5095085;28;20051;-73
2023/04/12 09:29:25;;;;;;;7.93;4.25;;;8.30;99.90;;;;;;5094575;28;20036;-73
2023/04/12 09:32:01;;;;;;;6.72;4.50;;;8.30;99.90;;;;;;5094918;28;20122;-73
2023/04/12 09:34:28;;;;;;;5.30;4.80;;;8.40;99.90;;;;;;5094992;28;20044;-75
2023/04/12 09:36:54;;;;;;;6.30;4.70;;;8.40;99.90;;;;;;5095149;28;20040;-74
2023/04/12 09:39:32;;;;;;;8.80;4.90;;;8.60;99.90;;;;;;5094783;28;20044;-75
2023/04/12 09:42:05;;;;;;;5.45;4.60;;;8.40;99.90;;;;;;5095026;28;20040;-75
2023/04/12 09:44:33;;;;;;;7.88;4.60;;;8.50;99.90;;;;;;5094559;28;20040;-74
2023/04/12 09:47:00;;;;;;;5.28;4.57;;;8.50;99.90;;;;;;5094036;28;20119;-76
2023/04/12 09:49:40;;;;;;;6.45;4.93;;;8.50;99.90;;;;;;5094519;28;20056;-74
2023/04/12 09:52:09;;;;;;;5.25;4.55;;;8.50;99.90;;;;;;5094450;28;20093;-75
2023/04/12 09:54:40;;;;;;;7.82;4.60;;;8.50;99.90;;;;;;5094546;28;20052;-75
2023/04/12 09:57:10;;;;;;;5.63;4.85;;;8.60;99.90;;;;;;5094334;28;20134;-75
2023/04/12 09:59:40;;;;;;;5.95;4.75;;;8.60;99.90;;;;;;5093817;28;20119;-77
2023/04/12 10:02:21;;;;;;;8.18;5.55;;;8.70;99.90;;;;;;5094567;28;20130;-74
2023/04/12 10:04:47;;;;;;;8.18;5.88;;;8.80;99.90;;;;;;5094717;28;20048;-78
2023/04/12 10:07:14;;;;;;;7.55;5.65;;;8.90;99.90;;;;;;5094703;28;20047;-75
2023/04/12 10:09:40;;;;;;;6.72;5.13;;;9.10;99.90;;;;;;5093997;28;20480;-76
2023/04/12 10:12:07;;;;;;;7.63;5.53;;;9.20;99.90;;;;;;5094630;28;20040;-81
2023/04/12 10:14:33;;;;;;;7.93;5.95;;;9.30;99.90;;;;;;5093306;28;20051;-73
2023/04/12 10:17:02;;;;;;;9.30;5.83;;;9.50;99.90;;;;;;5094385;28;20400;-73
2023/04/12 10:19:29;;;;;;;9.98;5.72;;;9.40;99.90;;;;;;5093994;28;20044;-73
2023/04/12 10:21:56;;;;;;;6.05;5.18;;;9.50;99.90;;;;;;5094245;28;20395;-75
2023/04/12 10:24:23;;;;;;;7.25;5.45;;;9.50;99.90;;;;;;5094170;28;20044;-74
2023/04/12 10:26:50;;;;;;;5.75;4.82;;;9.80;99.90;;;;;;5094147;28;20087;-75
2023/04/12 10:29:26;;;;;;;6.90;5.45;;;9.80;99.90;;;;;;5094018;28;20044;-80
2023/04/12 10:31:54;;;;;;;9.10;5.73;;;10.00;99.90;;;;;;5094149;28;20051;-73
2023/04/12 10:34:28;;;;;;;7.75;5.68;;;10.30;99.90;;;;;;5094038;28;20085;-73
2023/04/12 10:37:00;;;;;;;6.72;5.72;;;10.50;99.90;;;;;;5093078;28;20043;-74
2023/04/12 10:39:51;;;;;;;8.45;5.43;;;11.20;99.90;;;;;;5093929;28;20040;-71
2023/04/12 10:42:22;;;;;;;5.65;4.53;;;10.90;99.90;;;;;;5094212;28;20051;-74
2023/04/12 10:44:50;;;;;;;5.97;4.43;;;10.80;99.90;;;;;;5093936;28;20554;-75
2023/04/12 10:47:36;;;;;;;8.55;4.63;;;11.00;99.90;;;;;;5093736;28;20407;-75
2023/04/12 10:50:33;;;;;;;8.15;3.70;;;11.20;99.90;;;;;;5093853;28;20135;-77
2023/04/12 10:53:11;;;;;;;7.13;4.30;;;11.10;99.90;;;;;;5081529;28;20131;-75
2023/04/12 10:55:42;;;;;;;6.47;3.75;;;11.10;99.90;;;;;;5093786;28;20048;-82
2023/04/12 10:58:08;;;;;;;8.77;4.18;;;11.10;99.90;;;;;;5094223;28;20365;-81
2023/04/12 11:00:55;;;;;;;6.70;3.70;;;11.30;99.90;;;;;;5093138;28;20040;-75
2023/04/12 11:03:21;;;;;;;7.75;3.83;;;11.40;99.90;;;;;;5093667;28;20054;-76
2023/04/12 11:06:01;;;;;;;7.00;3.30;;;11.60;99.90;;;;;;5093730;28;20043;-76
2023/04/12 11:08:31;;;;;;;4.95;3.47;;;11.60;99.90;;;;;;5093604;28;20051;-76
2023/04/12 11:11:04;;;;;;;7.68;3.40;;;11.70;99.90;;;;;;5096293;28;20051;-77
2023/04/12 11:13:37;;;;;;;9.75;3.47;;;11.50;99.90;;;;;;5097793;28;20044;-76
2023/04/12 11:16:05;;;;;;;7.25;3.55;;;11.60;99.90;;;;;;5097962;28;20479;-77
2023/04/12 11:18:34;;;;;;;8.00;4.15;;;11.70;99.90;;;;;;5096473;28;20048;-77
2023/04/12 11:21:01;;;;;;;5.70;3.53;;;11.80;99.90;;;;;;5077848;28;20101;-77
2023/04/12 11:23:27;;;;;;;6.45;3.70;;;12.00;99.90;;;;;;5096864;28;20040;-77
2023/04/12 11:25:53;;;;;;;7.50;3.60;;;12.20;99.90;;;;;;5096659;28;20055;-77
2023/04/12 11:28:20;;;;;;;5.57;3.15;;;12.30;99.90;;;;;;5096671;28;20274;-76
2023/04/12 11:30:55;;;;;;;7.57;4.25;;;12.50;99.90;;;;;;5096650;28;20054;-76
2023/04/12 11:33:35;;;;;;;6.53;3.08;;;12.60;99.90;;;;;;5096827;28;20032;-77
2023/04/12 11:36:06;;;;;;;5.70;3.60;;;12.90;99.90;;;;;;5097394;28;20048;-78
2023/04/12 11:38:34;;;;;;;8.70;3.33;;;12.80;99.90;;;;;;5097600;28;20075;-77
2023/04/12 11:41:00;;;;;;;8.43;3.00;;;12.90;99.90;;;;;;5097502;28;20044;-77
2023/04/12 11:43:26;;;;;;;10.27;2.70;;;12.80;99.90;;;;;;5097014;28;20557;-77
2023/04/12 11:45:57;;;;;;;9.25;2.72;;;12.80;99.90;;;;;;5097091;28;20207;-76
2023/04/12 11:48:23;;;;;;;11.10;3.00;;;12.90;99.90;;;;;;5097090;28;20403;-76
2023/04/12 11:50:49;;;;;;;8.40;2.70;;;13.20;99.90;;;;;;5097292;28;20074;-77
2023/04/12 11:53:18;;;;;;;7.72;2.53;;;13.30;99.90;;;;;;5097035;28;20278;-77
2023/04/12 11:55:48;;;;;;;11.68;3.30;;;13.40;99.90;;;;;;5096985;28;20480;-76
2023/04/12 11:58:14;;;;;;;14.48;3.55;;;13.30;99.90;;;;;;5096928;28;20040;-77
2023/04/12 12:00:42;;;;;;;8.03;2.83;;;13.20;99.90;;;;;;5096947;28;20043;-77
2023/04/12 12:03:08;;;;;;;11.30;2.45;;;13.40;99.90;;;;;;5097095;28;20154;-78
2023/04/12 12:05:37;;;;;;;4.87;2.40;;;13.70;99.90;;;;;;5096907;28;20496;-77
2023/04/12 12:08:06;;;;;;;5.40;2.10;;;13.40;99.90;;;;;;5096730;28;20039;-76
2023/04/12 12:10:32;;;;;;;8.52;2.45;;;13.40;99.90;;;;;;5096597;28;20404;-76
2023/04/12 12:12:59;;;;;;;10.02;2.30;;;13.30;99.90;;;;;;5096716;28;20039;-77
2023/04/12 12:15:28;;;;;;;;;;;13.30;99.90;;;;;;5097000;28;20484;-76
2023/04/12 12:17:54;;;;;;;7.45;2.00;;;13.50;99.90;;;;;;5096630;28;20017;-77
2023/04/12 12:20:21;;;;;;;6.93;2.50;;;13.70;99.90;;;;;;5096504;28;20463;-77
2023/04/12 12:22:47;;;;;;;7.60;2.65;;;13.80;99.90;;;;;;5095668;28;20126;-76
2023/04/12 12:25:13;;;;;;;7.15;1.90;;;14.00;99.90;;;;;;5096528;28;20117;-76
2023/04/12 12:27:46;;;;;;;5.20;1.67;;;14.30;99.90;;;;;;5096407;28;20047;-77
2023/04/12 12:30:13;;;;;;;10.63;2.50;;;14.60;99.90;;;;;;5096382;28;20040;-77
2023/04/12 12:32:39;;;;;;;6.28;2.45;;;14.70;99.90;;;;;;5096319;28;20044;-76
2023/04/12 12:35:12;;;;;;;9.73;2.27;;;14.80;99.90;;;;;;5096353;28;20055;-77
2023/04/12 12:37:49;;;;;;;6.80;1.70;;;15.00;99.90;;;;;;5096343;28;20048;-77
2023/04/12 12:40:15;;;;;;;4.95;2.10;;;15.00;99.90;;;;;;5096167;28;20094;-77
2023/04/12 12:42:53;;;;;;;10.80;2.47;;;14.90;99.90;;;;;;5096133;28;20044;-76
2023/04/12 12:45:20;;;;;;;5.68;1.98;;;15.00;99.90;;;;;;5095960;28;20040;-76
2023/04/12 12:47:50;;;;;;;9.15;2.45;;;15.40;99.90;;;;;;5096219;28;20083;-77
2023/04/12 12:50:17;;;;;;;10.32;1.90;;;15.00;99.90;;;;;;5096183;28;20430;-76
2023/04/12 12:52:45;;;;;;;9.10;2.08;;;15.00;99.90;;;;;;5095867;28;20044;-77
2023/04/12 12:55:11;;;;;;;6.10;1.85;;;14.80;99.90;;;;;;5096101;28;20613;-77
2023/04/12 12:57:37;;;;;;;5.82;1.80;;;14.50;99.90;;;;;;5096261;28;20403;-77
2023/04/12 13:00:04;;;;;;;8.47;2.27;;;14.40;99.90;;;;;;5094621;28;20051;-76